Bowmansville, PA (17507)

5:22 PM EDT on May 22, 2015 (GMT -0400)
Fivepointville Rd. | | Change Station
CLOSE
Current Station
Personal Weather Station
Location: Denver, PA
Elevation: 404 ft
Nearby Weather Stations

Elev 404 ft 40.18 °N, 76.05 °W | Updated 6 minutes ago

Clear
Clear
73.0 °F
Feels Like 77 °F
N
7.3
Wind Variable Wind from West

Today
High -- | Low -- °F
--% Chance of Precip.
Yesterday
High -- | Low -- °F
Precip. -- in
5:42 AM 8:19 PM
Waxing Crescent, 24% visible
Pressure 30.00 in
Visibility 10.0 miles
Clouds Scattered Clouds 7500 ft
Heat Index 77 °F
Dew Point 42 °F
Humidity 33%
Rainfall 0.00 in
Snow Depth Not available.
UV 3 out of 12
Pollen 9.10 out of 12
Air Quality Not available.
Flu Activity Sporadic
METAR KRDG 222054Z 27016G29KT 10SM SCT075 23/03 A2999 RMK AO2 PK WND 26035/1955 SLP159 T02280028 53003

More Conditions Fewer Conditions

Pressure 30.00 in
Visibility 10.0 miles
Clouds Scattered Clouds 7500 ft
Heat Index 77 °F
Dew Point 42 °F
Humidity 33%
Rainfall 0.00 in
Snow Depth Not available.
UV 3 out of 12
Pollen 9.10 out of 12
Air Quality Not available.
Flu Activity Sporadic
METAR KRDG 222054Z 27016G29KT 10SM SCT075 23/03 A2999 RMK AO2 PK WND 26035/1955 SLP159 T02280028 53003

More Conditions Fewer Conditions

10-Day Weather Forecast

Almanac

Astronomy

May. 22, 2015 Rise Set
Actual Time
Civil Twilight
Nautical Twilight
Astronomical Twilight
Moon
Length of Visible Light
Length of Day
Tomorrow will be .
, % of the Moon is Illuminated

Today's Extremes

State Highs State Lows

Community

WunderPhotos

Upload Photos

1,823,306 photos uploaded!

WunderBlogs® & News

Nearby

Air Quality

  Air Quality AQ Index Pollutant
Not available.

Snow Depth

Station Depth Elevation

Earthquake Activity

City Distance Mag. Time & Date
Minimum magnitude displayed is 2.5.

Coastal Water Temperatures

Place Temperature

Stations

Nearby Weather Stations

Station Location Temp. Windchill Dew Point Humidity Wind Precip. Elev Updated Type